createdAt,value
2018-10-19T00:00:43.172Z,84.52
2018-10-19T00:03:15.830Z,84.45
2018-10-19T00:05:50.145Z,84.10
2018-10-19T00:08:24.397Z,83.96
2018-10-19T00:10:57.102Z,83.97
2018-10-19T00:13:33.471Z,84.11
2018-10-19T00:16:06.170Z,83.97
2018-10-19T00:18:40.120Z,84.21
2018-10-19T00:21:14.101Z,84.41
2018-10-19T00:23:46.434Z,84.46
2018-10-19T00:26:19.841Z,84.53
2018-10-19T00:28:52.637Z,84.97
2018-10-19T00:31:26.787Z,85.37
2018-10-19T00:33:59.678Z,85.87
2018-10-19T00:36:32.702Z,86.01
2018-10-19T00:39:09.231Z,86.27
2018-10-19T00:41:42.254Z,86.60
2018-10-19T00:44:15.061Z,87.15
2018-10-19T00:46:47.812Z,87.32
2018-10-19T00:49:20.369Z,87.62
2018-10-19T00:51:54.948Z,87.83
2018-10-19T00:54:27.982Z,88.23
2018-10-19T00:57:01.009Z,88.67
2018-10-19T00:59:35.352Z,88.91
2018-10-19T01:02:09.293Z,88.93
2018-10-19T01:04:42.877Z,88.88
2018-10-19T01:07:23.181Z,89.19
2018-10-19T01:09:59.424Z,89.30
2018-10-19T01:12:33.511Z,88.98
2018-10-19T01:15:14.397Z,89.01
2018-10-19T01:17:50.059Z,89.01
2018-10-19T01:20:24.314Z,88.92
2018-10-19T01:23:00.322Z,88.83
2018-10-19T01:25:39.965Z,88.76
2018-10-19T01:28:15.123Z,88.51
2018-10-19T01:30:48.337Z,88.33
2018-10-19T01:33:21.045Z,87.97
2018-10-19T01:35:57.438Z,87.78
2018-10-19T01:38:30.704Z,87.52
2018-10-19T01:41:04.921Z,87.38
2018-10-19T01:43:37.484Z,87.31
2018-10-19T01:46:10.357Z,87.29
2018-10-19T01:48:43.087Z,87.05
2018-10-19T01:51:16.495Z,86.84
2018-10-19T01:53:49.896Z,86.80
2018-10-19T01:56:24.834Z,86.82
2018-10-19T01:58:58.222Z,86.58
2018-10-19T02:01:32.041Z,86.47
2018-10-19T02:04:04.830Z,86.51
2018-10-19T02:06:38.203Z,86.55
2018-10-19T02:09:11.859Z,86.58
2018-10-19T02:11:44.869Z,86.50
2018-10-19T02:14:18.858Z,86.49
2018-10-19T02:16:52.964Z,86.46
2018-10-19T02:19:26.524Z,86.48
2018-10-19T02:21:59.097Z,86.40
2018-10-19T02:24:34.246Z,86.35
2018-10-19T02:27:07.571Z,86.35
2018-10-19T02:29:41.546Z,86.35
2018-10-19T02:32:18.082Z,86.27
2018-10-19T02:34:51.381Z,86.08
2018-10-19T02:37:25.414Z,85.91
2018-10-19T02:39:58.514Z,85.78
2018-10-19T02:42:32.372Z,85.70
2018-10-19T02:45:07.580Z,85.87
2018-10-19T02:47:41.457Z,85.82
2018-10-19T02:50:14.018Z,85.83
2018-10-19T02:52:46.593Z,85.83
2018-10-19T02:55:20.377Z,86.17
2018-10-19T02:57:52.995Z,86.24
2018-10-19T03:00:25.585Z,86.35
2018-10-19T03:03:01.677Z,86.97
2018-10-19T03:05:34.217Z,87.11
2018-10-19T03:08:07.597Z,87.50
2018-10-19T03:10:42.863Z,87.76
2018-10-19T03:13:16.789Z,88.20
2018-10-19T03:15:49.392Z,88.41
2018-10-19T03:18:22.221Z,88.53
2018-10-19T03:20:56.309Z,88.98
2018-10-19T03:23:29.618Z,89.18
2018-10-19T03:26:08.143Z,89.40
2018-10-19T03:28:41.493Z,89.78
2018-10-19T03:31:16.189Z,89.86
2018-10-19T03:33:49.575Z,89.96
2018-10-19T03:36:23.398Z,90.09
2018-10-19T03:38:56.888Z,90.42
2018-10-19T03:41:29.989Z,90.45
2018-10-19T03:44:03.594Z,90.50
2018-10-19T03:46:36.330Z,91.00
2018-10-19T03:49:11.642Z,91.35
2018-10-19T03:51:45.525Z,91.51
2018-10-19T03:54:19.785Z,91.54
2018-10-19T03:56:53.793Z,91.64
2018-10-19T03:59:29.461Z,91.70
2018-10-19T04:02:03.956Z,91.83
2018-10-19T04:04:37.750Z,91.96
2018-10-19T04:07:10.460Z,92.10
2018-10-19T04:09:43.056Z,92.42
2018-10-19T04:12:20.181Z,92.52
2018-10-19T04:14:54.053Z,92.82
2018-10-19T04:17:26.740Z,93.08
2018-10-19T04:20:00.510Z,93.19
2018-10-19T04:22:33.158Z,93.49
2018-10-19T04:25:08.542Z,93.69
2018-10-19T04:27:43.385Z,93.80
2018-10-19T04:30:17.468Z,94.14
2018-10-19T04:32:51.288Z,94.36
2018-10-19T04:35:27.357Z,94.44
2018-10-19T04:38:01.049Z,94.63
2018-10-19T04:40:33.673Z,94.82
2018-10-19T04:43:06.970Z,95.04
2018-10-19T04:45:39.626Z,95.22
2018-10-19T04:48:12.179Z,95.42
2018-10-19T04:50:44.970Z,95.49
2018-10-19T04:53:18.481Z,95.59
2018-10-19T04:55:50.953Z,95.53
2018-10-19T04:58:25.816Z,95.55
2018-10-19T05:00:59.157Z,95.71
2018-10-19T05:03:32.033Z,95.72
2018-10-19T05:06:07.122Z,95.81
2018-10-19T05:08:40.012Z,95.99
2018-10-19T05:11:13.625Z,96.09
2018-10-19T05:13:46.130Z,96.08
2018-10-19T05:16:19.609Z,96.05
2018-10-19T05:18:53.501Z,96.07
2018-10-19T05:21:26.830Z,95.99
2018-10-19T05:23:59.489Z,95.87
2018-10-19T05:26:32.279Z,95.70
2018-10-19T05:29:08.125Z,95.45
2018-10-19T05:31:42.641Z,95.27
2018-10-19T05:34:15.966Z,95.08
2018-10-19T05:36:50.662Z,94.89
2018-10-19T05:39:25.166Z,94.75
2018-10-19T05:41:57.596Z,94.50
2018-10-19T05:44:32.361Z,94.17
2018-10-19T05:47:07.489Z,93.89
2018-10-19T05:49:41.000Z,93.49
2018-10-19T05:52:14.143Z,93.22
2018-10-19T05:54:47.066Z,92.99
2018-10-19T05:57:19.673Z,92.65
2018-10-19T05:59:54.193Z,92.26
2018-10-19T06:02:26.906Z,92.08
2018-10-19T06:04:59.524Z,91.93
2018-10-19T06:07:32.129Z,92.49
2018-10-19T06:10:05.846Z,92.00
2018-10-19T06:12:39.254Z,91.55
2018-10-19T06:15:14.061Z,91.68
2018-10-19T06:18:57.063Z,90.85
2018-10-19T06:21:32.388Z,90.59
2018-10-19T06:24:08.444Z,90.79
2018-10-19T06:26:45.080Z,90.61
2018-10-19T06:29:22.302Z,89.50
2018-10-19T06:31:55.570Z,89.08
2018-10-19T06:34:28.919Z,88.86
2018-10-19T06:37:03.389Z,88.61
2018-10-19T06:39:36.147Z,88.50
2018-10-19T06:42:09.496Z,88.17
2018-10-19T06:44:48.773Z,88.10
2018-10-19T06:47:23.820Z,87.61
2018-10-19T06:49:57.888Z,87.48
2018-10-19T06:52:31.686Z,87.39
2018-10-19T06:55:07.230Z,87.29
2018-10-19T06:57:41.673Z,87.26
2018-10-19T07:00:17.422Z,87.17
2018-10-19T07:02:49.997Z,87.19
2018-10-19T07:05:22.703Z,87.16
2018-10-19T07:07:59.428Z,87.09
2018-10-19T07:10:32.821Z,86.96
2018-10-19T07:13:06.465Z,86.84
2018-10-19T07:15:40.448Z,86.78
2018-10-19T07:18:14.146Z,86.69
2018-10-19T07:20:47.407Z,86.63
2018-10-19T07:23:30.029Z,86.59
2018-10-19T07:26:03.518Z,86.31
2018-10-19T07:28:37.664Z,86.02
2018-10-19T07:31:11.553Z,85.29
2018-10-19T07:33:45.113Z,84.16
2018-10-19T07:36:17.818Z,84.33
2018-10-19T07:41:15.940Z,83.25
2018-10-19T07:43:48.640Z,83.06
2018-10-19T07:46:39.313Z,82.26
2018-10-19T07:49:11.941Z,81.95
2018-10-19T07:51:44.702Z,81.52
2018-10-19T07:54:17.617Z,81.24
2018-10-19T07:56:50.822Z,80.11
2018-10-19T07:59:24.015Z,80.26
2018-10-19T08:01:57.700Z,79.95
2018-10-19T08:04:30.792Z,79.55
2018-10-19T08:07:07.357Z,79.18
2018-10-19T08:09:41.417Z,78.07
2018-10-19T08:12:14.358Z,77.72
2018-10-19T08:14:46.825Z,77.32
2018-10-19T08:17:20.416Z,75.86
2018-10-19T08:19:53.689Z,75.77
2018-10-19T08:22:32.153Z,75.70
2018-10-19T08:25:07.896Z,75.40
2018-10-19T08:27:43.366Z,74.28
2018-10-19T08:30:16.212Z,73.87
2018-10-19T08:32:49.232Z,73.60
2018-10-19T08:35:22.885Z,73.46
2018-10-19T08:38:02.942Z,73.01
2018-10-19T08:40:36.539Z,72.36
2018-10-19T08:43:12.188Z,71.26
2018-10-19T08:45:49.540Z,70.36
2018-10-19T08:48:25.710Z,69.91
2018-10-19T08:50:59.535Z,69.43
2018-10-19T08:56:10.475Z,69.43
2018-10-19T08:58:45.611Z,69.73
2018-10-19T09:01:19.542Z,69.98
2018-10-19T09:03:53.209Z,69.25
2018-10-19T09:06:29.557Z,69.06
2018-10-19T09:09:14.041Z,68.99
2018-10-19T09:11:46.596Z,68.72
2018-10-19T09:15:00.731Z,68.46
2018-10-19T09:17:35.765Z,68.58
2018-10-19T09:20:10.261Z,68.11
2018-10-19T09:22:43.689Z,68.17
2018-10-19T09:25:17.415Z,66.54
2018-10-19T09:27:50.449Z,66.06
2018-10-19T09:30:24.097Z,65.78
2018-10-19T09:32:58.226Z,66.50
2018-10-19T09:35:30.956Z,65.88
2018-10-19T09:38:06.286Z,65.61
2018-10-19T09:40:40.684Z,64.85
2018-10-19T09:43:13.741Z,64.78
2018-10-19T09:45:49.212Z,65.27
2018-10-19T09:48:23.369Z,65.16
2018-10-19T09:50:56.386Z,65.38
2018-10-19T09:53:30.662Z,63.80
2018-10-19T09:56:04.727Z,63.12
2018-10-19T09:58:39.727Z,63.37
2018-10-19T10:01:22.724Z,64.32
2018-10-19T10:04:03.433Z,65.57
2018-10-19T10:06:38.167Z,66.62
2018-10-19T10:09:15.175Z,67.39
2018-10-19T10:11:48.758Z,67.83
2018-10-19T10:14:22.947Z,68.25
2018-10-19T10:16:55.608Z,68.60
2018-10-19T10:19:28.891Z,69.17
2018-10-19T10:22:04.460Z,69.30
2018-10-19T10:24:41.783Z,69.59
2018-10-19T10:27:17.228Z,69.75
2018-10-19T10:29:53.519Z,70.04
2018-10-19T10:32:34.089Z,70.18
2018-10-19T10:35:07.789Z,70.03
2018-10-19T10:37:47.778Z,70.25
2018-10-19T10:40:22.570Z,70.31
2018-10-19T10:42:57.773Z,70.34
2018-10-19T10:45:47.696Z,70.25
2018-10-19T10:48:24.591Z,69.88
2018-10-19T10:51:04.992Z,69.54
2018-10-19T10:53:44.231Z,69.05
2018-10-19T10:56:25.482Z,68.17
2018-10-19T10:59:00.766Z,67.79
2018-10-19T11:01:35.126Z,67.41
2018-10-19T11:04:10.661Z,66.85
2018-10-19T11:06:43.781Z,66.46
2018-10-19T11:09:17.974Z,66.15
2018-10-19T11:11:56.104Z,65.80
2018-10-19T11:14:31.651Z,65.08
2018-10-19T11:17:04.995Z,64.48
2018-10-19T11:19:39.161Z,63.27
2018-10-19T11:22:12.705Z,63.08
2018-10-19T11:24:46.330Z,61.65
2018-10-19T11:27:22.722Z,60.99
2018-10-19T11:30:15.578Z,60.49
2018-10-19T11:32:58.704Z,61.58
2018-10-19T11:35:37.219Z,62.40
2018-10-19T11:38:17.844Z,62.90
2018-10-19T11:41:01.840Z,63.33
2018-10-19T11:43:53.258Z,63.29
2018-10-19T11:46:33.827Z,63.23
2018-10-19T11:49:13.628Z,62.68
2018-10-19T11:51:59.502Z,62.37
2018-10-19T11:54:49.787Z,61.52
2018-10-19T11:57:24.960Z,61.19
2018-10-19T12:00:08.533Z,59.68
2018-10-19T12:02:46.467Z,57.37
2018-10-19T12:05:23.955Z,56.10
2018-10-19T12:07:58.700Z,56.26
2018-10-19T12:10:31.767Z,56.65
2018-10-19T12:13:07.617Z,57.20
2018-10-19T12:15:43.520Z,57.30
2018-10-19T12:18:18.353Z,57.71
2018-10-19T12:20:55.727Z,57.89
2018-10-19T12:23:30.841Z,58.16
2018-10-19T12:26:06.801Z,57.91
2018-10-19T12:28:41.766Z,58.04
2018-10-19T12:31:17.955Z,58.05
2018-10-19T12:33:52.155Z,58.08
2018-10-19T12:36:27.529Z,58.12
2018-10-19T12:39:01.141Z,57.86
2018-10-19T12:41:37.668Z,57.46
2018-10-19T12:44:11.512Z,57.23
2018-10-19T12:47:07.956Z,57.36
2018-10-19T12:49:41.885Z,56.63
2018-10-19T12:52:23.531Z,56.77
2018-10-19T12:54:59.633Z,57.02
2018-10-19T12:57:34.618Z,56.60
2018-10-19T13:00:09.645Z,56.33
2018-10-19T13:02:43.608Z,55.91
2018-10-19T13:05:16.786Z,55.63
2018-10-19T13:07:49.345Z,55.83
2018-10-19T13:10:21.931Z,55.96
2018-10-19T13:12:56.988Z,56.36
2018-10-19T13:15:31.854Z,56.39
2018-10-19T13:18:05.664Z,56.32
2018-10-19T13:20:39.285Z,56.55
2018-10-19T13:23:11.810Z,57.00
2018-10-19T13:25:46.638Z,57.30
2018-10-19T13:28:20.661Z,57.32
2018-10-19T13:30:53.523Z,57.04
2018-10-19T13:33:27.040Z,56.69
2018-10-19T13:36:04.040Z,55.94
2018-10-19T13:38:36.708Z,55.84
2018-10-19T13:41:15.078Z,56.06
2018-10-19T13:43:47.584Z,56.04
2018-10-19T13:46:21.701Z,56.21
2018-10-19T13:48:55.866Z,57.02
2018-10-19T13:51:29.827Z,57.50
2018-10-19T13:54:07.503Z,58.55
2018-10-19T13:56:42.808Z,59.20
2018-10-19T13:59:18.088Z,59.81
2018-10-19T14:01:52.777Z,60.30
2018-10-19T14:04:26.678Z,60.50
2018-10-19T14:07:02.449Z,60.99
2018-10-19T14:09:35.993Z,61.47
2018-10-19T14:12:09.639Z,61.85
2018-10-19T14:14:43.686Z,61.95
2018-10-19T14:17:18.090Z,62.08
2018-10-19T14:19:53.290Z,61.93
2018-10-19T14:22:26.800Z,61.84
2018-10-19T14:24:59.422Z,61.67
2018-10-19T14:27:32.989Z,61.28
2018-10-19T14:30:13.829Z,60.75
2018-10-19T14:32:47.350Z,59.51
2018-10-19T14:35:21.782Z,58.35
2018-10-19T14:37:54.536Z,58.12
2018-10-19T14:40:27.237Z,58.19
2018-10-19T14:43:03.498Z,57.57
2018-10-19T14:45:37.093Z,57.11
2018-10-19T14:48:11.749Z,57.46
2018-10-19T14:50:44.257Z,57.74
2018-10-19T14:53:21.886Z,58.15
2018-10-19T14:55:56.308Z,58.47
2018-10-19T14:58:29.274Z,58.46
2018-10-19T15:01:04.619Z,58.60
2018-10-19T15:03:38.617Z,58.98
2018-10-19T15:06:13.351Z,59.40
2018-10-19T15:08:47.714Z,59.46
2018-10-19T15:11:21.722Z,59.87
2018-10-19T15:13:55.686Z,60.12
2018-10-19T15:16:30.490Z,60.48
2018-10-19T15:19:03.684Z,60.86
2018-10-19T15:21:41.486Z,61.15
2018-10-19T15:24:14.308Z,61.67
2018-10-19T15:26:46.734Z,62.16
2018-10-19T15:29:20.756Z,62.47
2018-10-19T15:31:58.393Z,62.80
2018-10-19T15:34:34.694Z,63.09
2018-10-19T15:37:12.654Z,63.48
2018-10-19T15:39:46.183Z,64.01
2018-10-19T15:42:20.296Z,64.15
2018-10-19T15:44:55.051Z,64.29
2018-10-19T15:47:33.459Z,64.71
2018-10-19T15:50:10.913Z,65.09
2018-10-19T15:52:43.752Z,65.29
2018-10-19T15:55:17.367Z,65.44
2018-10-19T15:57:50.963Z,65.75
2018-10-19T16:00:23.791Z,65.78
2018-10-19T16:02:58.101Z,66.14
2018-10-19T16:05:30.706Z,66.39
2018-10-19T16:08:03.278Z,66.68
2018-10-19T16:10:36.928Z,66.91
2018-10-19T16:13:09.984Z,67.31
2018-10-19T16:15:44.212Z,67.49
2018-10-19T16:18:20.541Z,67.81
2018-10-19T16:20:54.395Z,68.00
2018-10-19T16:23:27.659Z,68.05
2018-10-19T16:26:00.341Z,68.42
2018-10-19T16:28:34.733Z,68.56
2018-10-19T16:31:08.275Z,68.82
2018-10-19T16:33:41.922Z,69.10
2018-10-19T16:36:15.540Z,69.24
2018-10-19T16:38:48.330Z,69.35
2018-10-19T16:41:23.655Z,69.70
2018-10-19T16:44:05.353Z,69.75
2018-10-19T16:46:42.069Z,70.05
2018-10-19T16:49:14.613Z,70.22
2018-10-19T16:51:47.498Z,70.42
2018-10-19T16:54:21.586Z,70.52
2018-10-19T16:56:55.050Z,70.83
2018-10-19T16:59:31.789Z,70.90
2018-10-19T17:02:06.985Z,71.31
2018-10-19T17:04:39.691Z,71.37
2018-10-19T17:07:17.487Z,71.54
2018-10-19T17:09:53.844Z,71.73
2018-10-19T17:12:28.813Z,71.84
2018-10-19T17:15:12.659Z,72.14
2018-10-19T17:17:46.596Z,72.40
2018-10-19T17:20:19.909Z,72.46
2018-10-19T17:22:56.931Z,72.44
2018-10-19T17:25:31.535Z,72.57
2018-10-19T17:28:07.165Z,72.95
2018-10-19T17:30:42.826Z,72.90
2018-10-19T17:33:15.443Z,72.87
2018-10-19T17:35:48.130Z,72.88
2018-10-19T17:38:22.439Z,73.04
2018-10-19T17:40:58.514Z,73.25
2018-10-19T17:43:33.444Z,73.33
2018-10-19T17:46:08.703Z,73.54
2018-10-19T17:48:45.747Z,73.74
2018-10-19T17:51:20.881Z,73.95
2018-10-19T17:53:56.423Z,74.13
2018-10-19T17:56:29.162Z,74.50
2018-10-19T17:59:03.980Z,74.77
2018-10-19T18:01:39.326Z,75.15
2018-10-19T18:04:33.432Z,75.82
2018-10-19T18:07:16.727Z,76.07
2018-10-19T18:09:52.794Z,76.03
2018-10-19T18:12:25.818Z,76.14
2018-10-19T18:15:02.817Z,76.26
2018-10-19T18:17:43.823Z,76.47
2018-10-19T18:20:18.013Z,76.64
2018-10-19T18:22:54.338Z,76.89
2018-10-19T18:25:32.434Z,77.11
2018-10-19T18:28:07.135Z,77.30
2018-10-19T18:30:41.891Z,77.63
2018-10-19T18:33:15.470Z,77.93
2018-10-19T18:35:56.434Z,77.92
2018-10-19T18:38:32.095Z,78.11
2018-10-19T18:41:06.734Z,78.96
2018-10-19T18:43:39.765Z,79.23
2018-10-19T18:46:13.473Z,79.49
2018-10-19T18:48:47.412Z,79.62
2018-10-19T18:51:20.447Z,79.60
2018-10-19T18:53:56.057Z,80.28
2018-10-19T18:56:31.557Z,80.56
2018-10-19T18:59:06.700Z,80.71
2018-10-19T19:01:43.623Z,80.65
2018-10-19T19:04:17.786Z,80.83
2018-10-19T19:06:52.417Z,80.87
2018-10-19T19:09:25.926Z,80.91
2018-10-19T19:11:59.893Z,81.10
2018-10-19T19:14:32.588Z,81.04
2018-10-19T19:17:07.500Z,81.01
2018-10-19T19:20:05.988Z,81.13
2018-10-19T19:22:57.099Z,81.24
2018-10-19T19:25:38.898Z,82.01
2018-10-19T19:28:15.449Z,81.91
2018-10-19T19:30:48.862Z,82.09
2018-10-19T19:33:28.340Z,81.99
2018-10-19T19:36:02.370Z,82.50
2018-10-19T19:38:36.079Z,82.51
2018-10-19T19:41:17.017Z,82.58
2018-10-19T19:43:50.614Z,82.89
2018-10-19T19:46:24.451Z,83.16
2018-10-19T19:49:10.707Z,83.07
2018-10-19T19:51:46.523Z,83.42
2018-10-19T19:54:21.469Z,83.36
2018-10-19T19:56:55.310Z,83.37
2018-10-19T19:59:28.696Z,83.21
2018-10-19T20:02:02.178Z,83.13
2018-10-19T20:04:38.011Z,82.71
2018-10-19T20:07:13.360Z,82.60
2018-10-19T20:09:47.253Z,82.55
2018-10-19T20:12:21.590Z,82.65
2018-10-19T20:14:55.529Z,82.72
2018-10-19T20:17:38.234Z,82.79
2018-10-19T20:20:13.926Z,82.76
2018-10-19T20:22:52.785Z,82.99
2018-10-19T20:25:29.651Z,83.13
2018-10-19T20:28:04.955Z,83.52
2018-10-19T20:30:39.940Z,83.45
2018-10-19T20:33:15.314Z,83.56
2018-10-19T20:35:50.663Z,83.75
2018-10-19T20:38:27.328Z,83.67
2018-10-19T20:41:03.396Z,83.95
2018-10-19T20:43:37.597Z,83.97
2018-10-19T20:46:20.833Z,84.58
2018-10-19T20:48:55.849Z,84.52
2018-10-19T20:51:31.811Z,85.11
2018-10-19T20:54:06.982Z,85.85
2018-10-19T20:56:41.435Z,86.05
2018-10-19T20:59:19.080Z,86.13
2018-10-19T21:01:53.288Z,86.32
2018-10-19T21:04:29.361Z,86.37
2018-10-19T21:07:03.252Z,86.68
2018-10-19T21:09:36.655Z,86.67
2018-10-19T21:12:12.245Z,86.74
2018-10-19T21:14:46.713Z,86.83
2018-10-19T21:17:20.110Z,87.38
2018-10-19T21:19:53.849Z,87.60
2018-10-19T21:22:28.872Z,88.14
2018-10-19T21:25:01.659Z,88.23
2018-10-19T21:27:35.473Z,88.26
2018-10-19T21:30:13.954Z,88.65
2018-10-19T21:32:47.654Z,88.59
2018-10-19T21:35:21.428Z,88.54
2018-10-19T21:37:58.050Z,88.79
2018-10-19T21:40:32.482Z,88.82
2018-10-19T21:43:08.306Z,88.83
2018-10-19T21:45:42.304Z,88.79
2018-10-19T21:48:15.581Z,88.94
2018-10-19T21:50:54.349Z,88.82
2018-10-19T21:53:28.483Z,89.59
2018-10-19T21:56:03.669Z,89.85
2018-10-19T21:58:43.140Z,90.06
2018-10-19T22:01:17.142Z,90.19
2018-10-19T22:03:53.829Z,90.39
2018-10-19T22:06:26.566Z,90.63
2018-10-19T22:09:01.613Z,90.83
2018-10-19T22:11:35.967Z,90.97
2018-10-19T22:14:12.750Z,91.11
2018-10-19T22:16:54.470Z,90.90
2018-10-19T22:19:27.533Z,91.00
2018-10-19T22:22:00.947Z,91.06
2018-10-19T22:24:38.606Z,91.16
2018-10-19T22:27:20.533Z,91.51
2018-10-19T22:29:54.752Z,91.51
2018-10-19T22:32:28.589Z,91.41
2018-10-19T22:35:03.113Z,91.47
2018-10-19T22:37:37.775Z,91.41
2018-10-19T22:40:11.191Z,91.22
2018-10-19T22:42:45.801Z,91.07
2018-10-19T22:45:18.505Z,90.95
2018-10-19T22:47:51.398Z,90.93
2018-10-19T22:50:26.298Z,91.16
2018-10-19T22:52:59.034Z,91.66
2018-10-19T22:55:32.293Z,92.19
2018-10-19T22:58:05.847Z,92.18
2018-10-19T23:00:40.297Z,91.85
2018-10-19T23:03:13.216Z,91.90
2018-10-19T23:05:46.969Z,91.67
2018-10-19T23:08:19.533Z,91.52
2018-10-19T23:10:55.011Z,91.61
2018-10-19T23:13:29.149Z,92.11
2018-10-19T23:16:04.114Z,92.11
2018-10-19T23:18:38.843Z,91.99
2018-10-19T23:21:12.583Z,91.83
2018-10-19T23:23:46.175Z,91.82
2018-10-19T23:26:18.805Z,92.34
2018-10-19T23:28:52.604Z,92.53
2018-10-19T23:31:26.048Z,92.59
2018-10-19T23:33:58.557Z,92.56
2018-10-19T23:36:31.711Z,92.56
2018-10-19T23:39:07.508Z,92.48
2018-10-19T23:41:40.627Z,92.84
2018-10-19T23:44:13.560Z,92.86
2018-10-19T23:46:46.142Z,92.80
2018-10-19T23:49:19.710Z,92.68
2018-10-19T23:51:53.329Z,92.61
2018-10-19T23:54:26.202Z,92.61
2018-10-19T23:56:58.920Z,92.63
2018-10-19T23:59:32.064Z,92.54
